sensor_id;sensor_type;location;lat;lon;timestamp;pressure;altitude;pressure_sealevel;temperature
24586;BMP280;12743;52.262;6.172;2023-05-07T00:01:37;100063.94;;;15.56
24586;BMP280;12743;52.262;6.172;2023-05-07T00:04:03;100037.81;;;15.34
24586;BMP280;12743;52.262;6.172;2023-05-07T00:06:32;100096.84;;;15.48
24586;BMP280;12743;52.262;6.172;2023-05-07T00:08:59;100092.34;;;15.59
24586;BMP280;12743;52.262;6.172;2023-05-07T00:11:27;100078.72;;;15.50
24586;BMP280;12743;52.262;6.172;2023-05-07T00:13:54;100087.41;;;15.58
24586;BMP280;12743;52.262;6.172;2023-05-07T00:16:21;100082.47;;;15.56
24586;BMP280;12743;52.262;6.172;2023-05-07T00:18:47;100087.00;;;15.52
24586;BMP280;12743;52.262;6.172;2023-05-07T00:21:14;100080.22;;;15.58
24586;BMP280;12743;52.262;6.172;2023-05-07T00:23:41;100054.13;;;15.50
24586;BMP280;12743;52.262;6.172;2023-05-07T00:26:07;100027.25;;;15.34
24586;BMP280;12743;52.262;6.172;2023-05-07T00:28:34;100087.72;;;15.42
24586;BMP280;12743;52.262;6.172;2023-05-07T00:31:00;100084.75;;;15.51
24586;BMP280;12743;52.262;6.172;2023-05-07T00:33:27;100077.19;;;15.49
24586;BMP280;12743;52.262;6.172;2023-05-07T00:35:54;100079.81;;;15.49
24586;BMP280;12743;52.262;6.172;2023-05-07T00:38:20;100062.03;;;15.43
24586;BMP280;12743;52.262;6.172;2023-05-07T00:40:47;100052.59;;;15.38
24586;BMP280;12743;52.262;6.172;2023-05-07T00:43:13;100046.84;;;15.29
24586;BMP280;12743;52.262;6.172;2023-05-07T00:45:40;100047.69;;;15.44
24586;BMP280;12743;52.262;6.172;2023-05-07T00:48:07;100053.31;;;15.42
24586;BMP280;12743;52.262;6.172;2023-05-07T00:50:33;100067.75;;;15.48
24586;BMP280;12743;52.262;6.172;2023-05-07T00:53:00;100073.38;;;15.43
24586;BMP280;12743;52.262;6.172;2023-05-07T00:55:27;100091.94;;;15.50
24586;BMP280;12743;52.262;6.172;2023-05-07T00:57:53;100094.97;;;15.56
24586;BMP280;12743;52.262;6.172;2023-05-07T01:00:20;100107.06;;;15.53
24586;BMP280;12743;52.262;6.172;2023-05-07T01:02:47;100105.94;;;15.58
24586;BMP280;12743;52.262;6.172;2023-05-07T01:05:17;100090.03;;;15.51
24586;BMP280;12743;52.262;6.172;2023-05-07T01:07:45;100060.81;;;15.22
24586;BMP280;12743;52.262;6.172;2023-05-07T01:13:04;100052.16;;;15.36
24586;BMP280;12743;52.262;6.172;2023-05-07T01:15:31;100086.66;;;15.50
24586;BMP280;12743;52.262;6.172;2023-05-07T01:17:58;100069.19;;;15.39
24586;BMP280;12743;52.262;6.172;2023-05-07T01:20:31;100054.06;;;15.36
24586;BMP280;12743;52.262;6.172;2023-05-07T01:22:57;100070.31;;;15.34
24586;BMP280;12743;52.262;6.172;2023-05-07T01:25:25;100042.72;;;15.35
24586;BMP280;12743;52.262;6.172;2023-05-07T01:27:55;100040.00;;;15.14
24586;BMP280;12743;52.262;6.172;2023-05-07T01:30:26;100040.34;;;15.09
24586;BMP280;12743;52.262;6.172;2023-05-07T01:35:34;100088.50;;;15.39
24586;BMP280;12743;52.262;6.172;2023-05-07T01:38:02;100116.09;;;15.38
24586;BMP280;12743;52.262;6.172;2023-05-07T01:40:30;100097.94;;;15.40
24586;BMP280;12743;52.262;6.172;2023-05-07T01:42:57;100049.47;;;15.22
24586;BMP280;12743;52.262;6.172;2023-05-07T01:45:24;100094.13;;;15.30
24586;BMP280;12743;52.262;6.172;2023-05-07T01:47:52;100050.97;;;15.23
24586;BMP280;12743;52.262;6.172;2023-05-07T01:50:19;100090.75;;;15.34
24586;BMP280;12743;52.262;6.172;2023-05-07T01:52:47;100088.06;;;15.26
24586;BMP280;12743;52.262;6.172;2023-05-07T01:55:13;100080.44;;;15.18
24586;BMP280;12743;52.262;6.172;2023-05-07T01:57:40;100107.69;;;15.25
24586;BMP280;12743;52.262;6.172;2023-05-07T02:00:07;100082.00;;;15.22
24586;BMP280;12743;52.262;6.172;2023-05-07T02:02:43;100066.47;;;15.17
24586;BMP280;12743;52.262;6.172;2023-05-07T02:05:20;100071.69;;;15.07
24586;BMP280;12743;52.262;6.172;2023-05-07T02:07:54;100035.78;;;14.99
24586;BMP280;12743;52.262;6.172;2023-05-07T02:10:21;100041.03;;;14.95
24586;BMP280;12743;52.262;6.172;2023-05-07T02:12:48;100065.63;;;15.03
24586;BMP280;12743;52.262;6.172;2023-05-07T02:15:14;100063.34;;;14.98
24586;BMP280;12743;52.262;6.172;2023-05-07T02:18:01;100043.25;;;14.86
24586;BMP280;12743;52.262;6.172;2023-05-07T02:20:28;100007.28;;;14.68
24586;BMP280;12743;52.262;6.172;2023-05-07T02:22:55;100037.19;;;14.86
24586;BMP280;12743;52.262;6.172;2023-05-07T02:25:23;100066.00;;;15.01
24586;BMP280;12743;52.262;6.172;2023-05-07T02:27:50;100060.69;;;14.94
24586;BMP280;12743;52.262;6.172;2023-05-07T02:30:20;100072.75;;;14.88
24586;BMP280;12743;52.262;6.172;2023-05-07T02:32:51;100074.28;;;14.93
24586;BMP280;12743;52.262;6.172;2023-05-07T02:35:17;100097.31;;;14.96
24586;BMP280;12743;52.262;6.172;2023-05-07T02:37:44;100043.16;;;14.69
24586;BMP280;12743;52.262;6.172;2023-05-07T02:40:11;100043.63;;;14.85
24586;BMP280;12743;52.262;6.172;2023-05-07T02:42:38;100016.44;;;14.84
24586;BMP280;12743;52.262;6.172;2023-05-07T02:45:05;100023.19;;;14.75
24586;BMP280;12743;52.262;6.172;2023-05-07T02:47:32;100032.63;;;14.79
24586;BMP280;12743;52.262;6.172;2023-05-07T02:50:00;100073.03;;;14.80
24586;BMP280;12743;52.262;6.172;2023-05-07T02:52:27;100026.22;;;14.80
24586;BMP280;12743;52.262;6.172;2023-05-07T02:54:53;100076.47;;;14.84
24586;BMP280;12743;52.262;6.172;2023-05-07T02:57:20;100078.38;;;14.87
24586;BMP280;12743;52.262;6.172;2023-05-07T02:59:46;100092.38;;;14.87
24586;BMP280;12743;52.262;6.172;2023-05-07T03:02:14;100052.56;;;14.66
24586;BMP280;12743;52.262;6.172;2023-05-07T03:04:41;100068.84;;;14.72
24586;BMP280;12743;52.262;6.172;2023-05-07T03:07:08;100029.75;;;14.40
24586;BMP280;12743;52.262;6.172;2023-05-07T03:09:35;100012.81;;;14.48
24586;BMP280;12743;52.262;6.172;2023-05-07T03:12:01;99953.66;;;14.06
24586;BMP280;12743;52.262;6.172;2023-05-07T03:14:28;99992.66;;;14.26
24586;BMP280;12743;52.262;6.172;2023-05-07T03:16:55;99996.06;;;14.27
24586;BMP280;12743;52.262;6.172;2023-05-07T03:19:22;100003.69;;;14.35
24586;BMP280;12743;52.262;6.172;2023-05-07T03:21:48;99990.00;;;14.26
24586;BMP280;12743;52.262;6.172;2023-05-07T03:24:15;99991.84;;;14.19
24586;BMP280;12743;52.262;6.172;2023-05-07T03:26:41;99991.09;;;14.18
24586;BMP280;12743;52.262;6.172;2023-05-07T03:29:08;99992.66;;;14.26
24586;BMP280;12743;52.262;6.172;2023-05-07T03:31:35;99991.47;;;14.20
24586;BMP280;12743;52.262;6.172;2023-05-07T03:34:02;99987.59;;;14.07
24586;BMP280;12743;52.262;6.172;2023-05-07T03:36:28;99981.88;;;13.98
24586;BMP280;12743;52.262;6.172;2023-05-07T03:38:56;99975.91;;;14.08
24586;BMP280;12743;52.262;6.172;2023-05-07T03:41:25;99954.38;;;13.99
24586;BMP280;12743;52.262;6.172;2023-05-07T03:43:52;99984.66;;;14.16
24586;BMP280;12743;52.262;6.172;2023-05-07T03:46:19;99976.88;;;13.90
24586;BMP280;12743;52.262;6.172;2023-05-07T03:48:46;99971.59;;;13.90
24586;BMP280;12743;52.262;6.172;2023-05-07T03:51:14;99971.25;;;13.91
24586;BMP280;12743;52.262;6.172;2023-05-07T03:53:41;99989.72;;;13.91
24586;BMP280;12743;52.262;6.172;2023-05-07T03:56:07;99997.03;;;14.05
24586;BMP280;12743;52.262;6.172;2023-05-07T03:58:37;100009.31;;;13.90
24586;BMP280;12743;52.262;6.172;2023-05-07T04:01:07;99996.88;;;13.91
24586;BMP280;12743;52.262;6.172;2023-05-07T04:03:34;99985.75;;;13.71
24586;BMP280;12743;52.262;6.172;2023-05-07T04:06:01;99999.69;;;13.68
24586;BMP280;12743;52.262;6.172;2023-05-07T04:08:29;99980.81;;;13.62
24586;BMP280;12743;52.262;6.172;2023-05-07T04:10:57;99975.03;;;13.50
24586;BMP280;12743;52.262;6.172;2023-05-07T04:13:29;99962.13;;;13.45
24586;BMP280;12743;52.262;6.172;2023-05-07T04:15:57;99982.69;;;13.65
24586;BMP280;12743;52.262;6.172;2023-05-07T04:18:25;100017.44;;;13.71
24586;BMP280;12743;52.262;6.172;2023-05-07T04:20:51;100028.88;;;13.82
24586;BMP280;12743;52.262;6.172;2023-05-07T04:23:18;100000.31;;;13.58
24586;BMP280;12743;52.262;6.172;2023-05-07T04:25:45;100013.31;;;13.73
24586;BMP280;12743;52.262;6.172;2023-05-07T04:28:25;100036.56;;;13.61
24586;BMP280;12743;52.262;6.172;2023-05-07T04:30:52;100040.50;;;13.78
24586;BMP280;12743;52.262;6.172;2023-05-07T04:33:20;100035.09;;;13.67
24586;BMP280;12743;52.262;6.172;2023-05-07T04:35:48;100049.50;;;13.77
24586;BMP280;12743;52.262;6.172;2023-05-07T04:38:15;100039.97;;;13.61
24586;BMP280;12743;52.262;6.172;2023-05-07T04:40:43;100043.09;;;13.74
24586;BMP280;12743;52.262;6.172;2023-05-07T04:43:14;100030.53;;;13.64
24586;BMP280;12743;52.262;6.172;2023-05-07T04:45:46;100025.22;;;13.57
24586;BMP280;12743;52.262;6.172;2023-05-07T04:48:12;100029.41;;;13.61
24586;BMP280;12743;52.262;6.172;2023-05-07T04:50:41;100011.44;;;13.41
24586;BMP280;12743;52.262;6.172;2023-05-07T04:53:08;100047.88;;;13.61
24586;BMP280;12743;52.262;6.172;2023-05-07T04:55:34;100036.16;;;13.59
24586;BMP280;12743;52.262;6.172;2023-05-07T04:58:02;100059.97;;;13.62
24586;BMP280;12743;52.262;6.172;2023-05-07T05:00:32;100062.50;;;13.55
24586;BMP280;12743;52.262;6.172;2023-05-07T05:03:02;100063.19;;;13.49
24586;BMP280;12743;52.262;6.172;2023-05-07T05:05:29;100045.91;;;13.55
24586;BMP280;12743;52.262;6.172;2023-05-07T05:07:57;100055.59;;;13.47
24586;BMP280;12743;52.262;6.172;2023-05-07T05:10:28;99972.69;;;12.82
24586;BMP280;12743;52.262;6.172;2023-05-07T05:12:55;100065.94;;;13.59
24586;BMP280;12743;52.262;6.172;2023-05-07T05:15:23;100081.84;;;13.63
24586;BMP280;12743;52.262;6.172;2023-05-07T05:17:50;100083.56;;;13.52
24586;BMP280;12743;52.262;6.172;2023-05-07T05:20:18;100074.50;;;13.49
24586;BMP280;12743;52.262;6.172;2023-05-07T05:22:46;100097.38;;;13.42
24586;BMP280;12743;52.262;6.172;2023-05-07T05:25:12;100094.75;;;13.42
24586;BMP280;12743;52.262;6.172;2023-05-07T05:27:39;100077.91;;;13.50
24586;BMP280;12743;52.262;6.172;2023-05-07T05:30:07;100085.44;;;13.51
24586;BMP280;12743;52.262;6.172;2023-05-07T05:32:34;100107.19;;;13.45
24586;BMP280;12743;52.262;6.172;2023-05-07T05:35:01;100118.34;;;13.61
24586;BMP280;12743;52.262;6.172;2023-05-07T05:37:28;100122.66;;;13.43
24586;BMP280;12743;52.262;6.172;2023-05-07T05:39:57;100097.25;;;13.31
24586;BMP280;12743;52.262;6.172;2023-05-07T05:42:26;100122.31;;;13.48
24586;BMP280;12743;52.262;6.172;2023-05-07T05:44:54;100118.97;;;13.51
24586;BMP280;12743;52.262;6.172;2023-05-07T05:47:22;100123.63;;;13.61
24586;BMP280;12743;52.262;6.172;2023-05-07T05:49:49;100127.47;;;13.67
24586;BMP280;12743;52.262;6.172;2023-05-07T05:52:16;100149.06;;;13.76
24586;BMP280;12743;52.262;6.172;2023-05-07T05:54:44;100137.69;;;13.68
24586;BMP280;12743;52.262;6.172;2023-05-07T05:57:11;100142.72;;;13.81
24586;BMP280;12743;52.262;6.172;2023-05-07T05:59:38;100128.13;;;13.60
24586;BMP280;12743;52.262;6.172;2023-05-07T06:02:05;100130.44;;;13.62
24586;BMP280;12743;52.262;6.172;2023-05-07T06:04:33;100156.31;;;13.53
24586;BMP280;12743;52.262;6.172;2023-05-07T06:07:00;100139.88;;;13.66
24586;BMP280;12743;52.262;6.172;2023-05-07T06:09:26;100139.78;;;13.56
24586;BMP280;12743;52.262;6.172;2023-05-07T06:11:53;100153.69;;;13.53
24586;BMP280;12743;52.262;6.172;2023-05-07T06:14:19;100155.66;;;13.59
24586;BMP280;12743;52.262;6.172;2023-05-07T06:16:46;100134.56;;;13.33
24586;BMP280;12743;52.262;6.172;2023-05-07T06:19:13;100147.03;;;13.62
24586;BMP280;12743;52.262;6.172;2023-05-07T06:21:40;100163.63;;;13.63
24586;BMP280;12743;52.262;6.172;2023-05-07T06:24:07;100144.84;;;13.71
24586;BMP280;12743;52.262;6.172;2023-05-07T06:26:36;100153.63;;;13.79
24586;BMP280;12743;52.262;6.172;2023-05-07T06:29:02;100155.47;;;13.75
24586;BMP280;12743;52.262;6.172;2023-05-07T06:31:30;100188.50;;;13.95
24586;BMP280;12743;52.262;6.172;2023-05-07T06:34:03;100185.94;;;13.99
24586;BMP280;12743;52.262;6.172;2023-05-07T06:36:34;100179.94;;;13.72
24586;BMP280;12743;52.262;6.172;2023-05-07T06:39:11;100158.56;;;13.81
24586;BMP280;12743;52.262;6.172;2023-05-07T06:41:38;100141.88;;;13.43
24586;BMP280;12743;52.262;6.172;2023-05-07T06:44:16;100156.00;;;13.58
24586;BMP280;12743;52.262;6.172;2023-05-07T06:46:47;100168.28;;;13.73
24586;BMP280;12743;52.262;6.172;2023-05-07T06:49:13;100157.06;;;13.50
24586;BMP280;12743;52.262;6.172;2023-05-07T06:51:40;100138.81;;;13.71
24586;BMP280;12743;52.262;6.172;2023-05-07T06:54:07;100161.69;;;13.63
24586;BMP280;12743;52.262;6.172;2023-05-07T06:56:36;100152.69;;;13.64
24586;BMP280;12743;52.262;6.172;2023-05-07T06:59:04;100165.59;;;13.69
24586;BMP280;12743;52.262;6.172;2023-05-07T07:01:35;100183.44;;;13.53
24586;BMP280;12743;52.262;6.172;2023-05-07T07:04:03;100173.41;;;13.62
24586;BMP280;12743;52.262;6.172;2023-05-07T07:06:30;100147.63;;;13.52
24586;BMP280;12743;52.262;6.172;2023-05-07T07:09:00;100181.53;;;13.80
24586;BMP280;12743;52.262;6.172;2023-05-07T07:11:27;100198.47;;;14.05
24586;BMP280;12743;52.262;6.172;2023-05-07T07:13:54;100215.28;;;14.27
24586;BMP280;12743;52.262;6.172;2023-05-07T07:16:21;100184.81;;;14.00
24586;BMP280;12743;52.262;6.172;2023-05-07T07:18:50;100219.38;;;14.21
24586;BMP280;12743;52.262;6.172;2023-05-07T07:21:17;100183.16;;;13.88
24586;BMP280;12743;52.262;6.172;2023-05-07T07:23:44;100206.66;;;14.30
24586;BMP280;12743;52.262;6.172;2023-05-07T07:26:10;100227.81;;;14.33
24586;BMP280;12743;52.262;6.172;2023-05-07T07:28:46;100192.63;;;14.22
24586;BMP280;12743;52.262;6.172;2023-05-07T07:31:17;100184.59;;;14.15
24586;BMP280;12743;52.262;6.172;2023-05-07T07:33:44;100160.66;;;14.01
24586;BMP280;12743;52.262;6.172;2023-05-07T07:36:10;100202.72;;;14.17
24586;BMP280;12743;52.262;6.172;2023-05-07T07:38:37;100196.00;;;14.23
24586;BMP280;12743;52.262;6.172;2023-05-07T07:41:05;100188.19;;;14.33
24586;BMP280;12743;52.262;6.172;2023-05-07T07:43:34;100202.03;;;14.23
24586;BMP280;12743;52.262;6.172;2023-05-07T07:46:02;100210.75;;;14.27
24586;BMP280;12743;52.262;6.172;2023-05-07T07:48:30;100221.50;;;14.41
24586;BMP280;12743;52.262;6.172;2023-05-07T07:50:58;100240.38;;;14.43
24586;BMP280;12743;52.262;6.172;2023-05-07T07:53:24;100216.56;;;14.40
24586;BMP280;12743;52.262;6.172;2023-05-07T07:55:51;100199.00;;;14.21
24586;BMP280;12743;52.262;6.172;2023-05-07T07:58:26;100190.91;;;14.40
24586;BMP280;12743;52.262;6.172;2023-05-07T08:00:53;100184.00;;;14.29
24586;BMP280;12743;52.262;6.172;2023-05-07T08:03:23;100192.97;;;14.58
24586;BMP280;12743;52.262;6.172;2023-05-07T08:05:53;100210.41;;;14.69
24586;BMP280;12743;52.262;6.172;2023-05-07T08:08:20;100199.53;;;14.74
24586;BMP280;12743;52.262;6.172;2023-05-07T08:10:47;100207.41;;;15.18
24586;BMP280;12743;52.262;6.172;2023-05-07T08:13:23;100229.34;;;15.15
24586;BMP280;12743;52.262;6.172;2023-05-07T08:15:50;100273.56;;;15.18
24586;BMP280;12743;52.262;6.172;2023-05-07T08:18:17;100215.00;;;15.23
24586;BMP280;12743;52.262;6.172;2023-05-07T08:20:44;100200.00;;;15.41
24586;BMP280;12743;52.262;6.172;2023-05-07T08:23:15;100219.78;;;15.03
24586;BMP280;12743;52.262;6.172;2023-05-07T08:25:43;100195.97;;;15.00
24586;BMP280;12743;52.262;6.172;2023-05-07T08:28:10;100179.78;;;15.12
24586;BMP280;12743;52.262;6.172;2023-05-07T08:30:38;100215.81;;;15.27
24586;BMP280;12743;52.262;6.172;2023-05-07T08:33:05;100223.28;;;15.18
24586;BMP280;12743;52.262;6.172;2023-05-07T08:35:31;100210.91;;;15.32
24586;BMP280;12743;52.262;6.172;2023-05-07T08:37:58;100232.00;;;15.22
24586;BMP280;12743;52.262;6.172;2023-05-07T08:40:26;100236.97;;;15.27
24586;BMP280;12743;52.262;6.172;2023-05-07T08:42:55;100219.94;;;15.21
24586;BMP280;12743;52.262;6.172;2023-05-07T08:45:24;100227.03;;;15.13
24586;BMP280;12743;52.262;6.172;2023-05-07T08:47:54;100222.59;;;15.24
24586;BMP280;12743;52.262;6.172;2023-05-07T08:50:25;100239.31;;;15.39
24586;BMP280;12743;52.262;6.172;2023-05-07T08:52:51;100229.47;;;15.40
24586;BMP280;12743;52.262;6.172;2023-05-07T08:55:21;100237.88;;;15.52
24586;BMP280;12743;52.262;6.172;2023-05-07T08:57:47;100254.03;;;15.37
24586;BMP280;12743;52.262;6.172;2023-05-07T09:00:16;100247.69;;;15.48
24586;BMP280;12743;52.262;6.172;2023-05-07T09:02:46;100236.66;;;15.39
24586;BMP280;12743;52.262;6.172;2023-05-07T09:05:13;100251.22;;;15.73
24586;BMP280;12743;52.262;6.172;2023-05-07T09:07:39;100253.84;;;15.70
24586;BMP280;12743;52.262;6.172;2023-05-07T09:10:07;100223.25;;;15.76
24586;BMP280;12743;52.262;6.172;2023-05-07T09:12:36;100286.19;;;16.03
24586;BMP280;12743;52.262;6.172;2023-05-07T09:15:06;100268.81;;;16.13
24586;BMP280;12743;52.262;6.172;2023-05-07T09:17:33;100293.47;;;16.35
24586;BMP280;12743;52.262;6.172;2023-05-07T09:20:05;100312.38;;;16.26
24586;BMP280;12743;52.262;6.172;2023-05-07T09:22:37;100305.31;;;16.69
24586;BMP280;12743;52.262;6.172;2023-05-07T09:25:08;100307.22;;;16.75
24586;BMP280;12743;52.262;6.172;2023-05-07T09:27:37;100350.34;;;16.55
24586;BMP280;12743;52.262;6.172;2023-05-07T09:30:05;100314.34;;;16.40
24586;BMP280;12743;52.262;6.172;2023-05-07T09:32:37;100323.91;;;16.76
24586;BMP280;12743;52.262;6.172;2023-05-07T09:35:15;100357.59;;;16.82
24586;BMP280;12743;52.262;6.172;2023-05-07T09:37:46;100380.19;;;16.34
24586;BMP280;12743;52.262;6.172;2023-05-07T09:40:24;100376.50;;;16.56
24586;BMP280;12743;52.262;6.172;2023-05-07T09:42:52;100348.09;;;16.67
24586;BMP280;12743;52.262;6.172;2023-05-07T09:45:27;100411.09;;;17.13
24586;BMP280;12743;52.262;6.172;2023-05-07T09:47:57;100342.50;;;17.22
24586;BMP280;12743;52.262;6.172;2023-05-07T09:50:28;100423.22;;;17.03
24586;BMP280;12743;52.262;6.172;2023-05-07T09:52:56;100388.00;;;17.13
24586;BMP280;12743;52.262;6.172;2023-05-07T09:55:25;100345.88;;;17.08
24586;BMP280;12743;52.262;6.172;2023-05-07T09:57:53;100397.84;;;17.02
24586;BMP280;12743;52.262;6.172;2023-05-07T10:00:21;100376.13;;;16.65
24586;BMP280;12743;52.262;6.172;2023-05-07T10:02:51;100326.13;;;16.67
24586;BMP280;12743;52.262;6.172;2023-05-07T10:05:27;100319.00;;;17.06
24586;BMP280;12743;52.262;6.172;2023-05-07T10:07:56;100347.03;;;17.39
24586;BMP280;12743;52.262;6.172;2023-05-07T10:10:24;100414.16;;;17.29
24586;BMP280;12743;52.262;6.172;2023-05-07T10:12:52;100370.91;;;17.32
24586;BMP280;12743;52.262;6.172;2023-05-07T10:15:28;100413.41;;;17.63
24586;BMP280;12743;52.262;6.172;2023-05-07T10:17:57;100434.63;;;17.56
24586;BMP280;12743;52.262;6.172;2023-05-07T10:20:25;100455.91;;;17.70
24586;BMP280;12743;52.262;6.172;2023-05-07T10:22:55;100446.41;;;17.62
24586;BMP280;12743;52.262;6.172;2023-05-07T10:25:30;100427.84;;;17.59
24586;BMP280;12743;52.262;6.172;2023-05-07T10:28:05;100408.09;;;17.60
24586;BMP280;12743;52.262;6.172;2023-05-07T10:31:04;100402.00;;;17.63
24586;BMP280;12743;52.262;6.172;2023-05-07T10:33:40;100384.59;;;17.65
24586;BMP280;12743;52.262;6.172;2023-05-07T10:36:09;100445.66;;;17.72
24586;BMP280;12743;52.262;6.172;2023-05-07T10:38:36;100461.22;;;17.99
24586;BMP280;12743;52.262;6.172;2023-05-07T10:41:02;100486.22;;;18.15
24586;BMP280;12743;52.262;6.172;2023-05-07T10:43:41;100477.84;;;18.10
24586;BMP280;12743;52.262;6.172;2023-05-07T10:51:37;100505.97;;;18.07
24586;BMP280;12743;52.262;6.172;2023-05-07T10:56:51;100517.38;;;18.01
24586;BMP280;12743;52.262;6.172;2023-05-07T10:59:30;100502.16;;;18.15
24586;BMP280;12743;52.262;6.172;2023-05-07T11:02:06;100525.69;;;17.99
24586;BMP280;12743;52.262;6.172;2023-05-07T11:05:19;100515.81;;;18.35
24586;BMP280;12743;52.262;6.172;2023-05-07T11:08:00;100528.34;;;18.24
24586;BMP280;12743;52.262;6.172;2023-05-07T11:10:54;100562.13;;;18.58
24586;BMP280;12743;52.262;6.172;2023-05-07T11:13:44;100553.81;;;18.35
24586;BMP280;12743;52.262;6.172;2023-05-07T11:16:34;100562.50;;;18.29
24586;BMP280;12743;52.262;6.172;2023-05-07T11:19:17;100528.38;;;18.17
24586;BMP280;12743;52.262;6.172;2023-05-07T11:21:47;100500.63;;;18.14
24586;BMP280;12743;52.262;6.172;2023-05-07T11:24:29;100517.38;;;18.11
24586;BMP280;12743;52.262;6.172;2023-05-07T11:27:04;100503.28;;;18.32
24586;BMP280;12743;52.262;6.172;2023-05-07T11:29:31;100506.72;;;18.25
24586;BMP280;12743;52.262;6.172;2023-05-07T11:32:04;100535.06;;;18.74
24586;BMP280;12743;52.262;6.172;2023-05-07T11:34:38;100586.97;;;19.14
24586;BMP280;12743;52.262;6.172;2023-05-07T11:37:05;100600.25;;;19.24
24586;BMP280;12743;52.262;6.172;2023-05-07T11:39:48;100608.28;;;19.21
24586;BMP280;12743;52.262;6.172;2023-05-07T11:42:31;100645.06;;;19.36
24586;BMP280;12743;52.262;6.172;2023-05-07T11:44:58;100566.31;;;18.45
24586;BMP280;12743;52.262;6.172;2023-05-07T11:47:29;100603.84;;;18.86
24586;BMP280;12743;52.262;6.172;2023-05-07T11:49:56;100593.19;;;18.79
24586;BMP280;12743;52.262;6.172;2023-05-07T11:52:24;100590.59;;;18.65
24586;BMP280;12743;52.262;6.172;2023-05-07T11:54:52;100575.44;;;18.55
24586;BMP280;12743;52.262;6.172;2023-05-07T11:57:19;100571.56;;;18.77
24586;BMP280;12743;52.262;6.172;2023-05-07T11:59:46;100481.94;;;18.42
24586;BMP280;12743;52.262;6.172;2023-05-07T12:02:15;100499.06;;;18.38
24586;BMP280;12743;52.262;6.172;2023-05-07T12:04:42;100578.97;;;19.21
24586;BMP280;12743;52.262;6.172;2023-05-07T12:07:12;100608.00;;;19.66
24586;BMP280;12743;52.262;6.172;2023-05-07T12:09:42;100446.66;;;18.42
24586;BMP280;12743;52.262;6.172;2023-05-07T12:12:09;100582.97;;;19.50
24586;BMP280;12743;52.262;6.172;2023-05-07T12:14:39;100687.63;;;20.16
24586;BMP280;12743;52.262;6.172;2023-05-07T12:17:11;100719.50;;;20.30
24586;BMP280;12743;52.262;6.172;2023-05-07T12:19:39;100686.91;;;20.05
24586;BMP280;12743;52.262;6.172;2023-05-07T12:22:09;100729.94;;;20.58
24586;BMP280;12743;52.262;6.172;2023-05-07T12:24:59;100808.84;;;21.40
24586;BMP280;12743;52.262;6.172;2023-05-07T12:27:28;100709.66;;;20.64
24586;BMP280;12743;52.262;6.172;2023-05-07T12:29:57;100710.16;;;20.08
24586;BMP280;12743;52.262;6.172;2023-05-07T12:32:24;100745.25;;;20.03
24586;BMP280;12743;52.262;6.172;2023-05-07T12:34:51;100727.47;;;19.75
24586;BMP280;12743;52.262;6.172;2023-05-07T12:37:24;100894.00;;;20.98
24586;BMP280;12743;52.262;6.172;2023-05-07T12:40:05;100847.78;;;21.01
24586;BMP280;12743;52.262;6.172;2023-05-07T12:42:35;100900.50;;;20.93
24586;BMP280;12743;52.262;6.172;2023-05-07T12:45:12;100846.44;;;20.82
24586;BMP280;12743;52.262;6.172;2023-05-07T12:47:43;100803.13;;;20.60
24586;BMP280;12743;52.262;6.172;2023-05-07T12:50:12;100896.06;;;21.20
24586;BMP280;12743;52.262;6.172;2023-05-07T12:52:39;100774.94;;;20.63
24586;BMP280;12743;52.262;6.172;2023-05-07T12:55:07;100932.06;;;21.87
24586;BMP280;12743;52.262;6.172;2023-05-07T12:57:48;100849.41;;;20.91
24586;BMP280;12743;52.262;6.172;2023-05-07T13:00:15;100900.53;;;20.90
24586;BMP280;12743;52.262;6.172;2023-05-07T13:02:43;100896.31;;;20.96
24586;BMP280;12743;52.262;6.172;2023-05-07T13:05:13;100900.91;;;20.88
24586;BMP280;12743;52.262;6.172;2023-05-07T13:07:40;100899.09;;;20.78
24586;BMP280;12743;52.262;6.172;2023-05-07T13:10:17;100781.09;;;19.91
24586;BMP280;12743;52.262;6.172;2023-05-07T13:12:44;100811.72;;;20.31
24586;BMP280;12743;52.262;6.172;2023-05-07T13:15:11;100820.91;;;20.26
24586;BMP280;12743;52.262;6.172;2023-05-07T13:17:38;100804.44;;;20.38
24586;BMP280;12743;52.262;6.172;2023-05-07T13:20:05;100843.34;;;20.87
24586;BMP280;12743;52.262;6.172;2023-05-07T13:22:32;100831.13;;;20.86
24586;BMP280;12743;52.262;6.172;2023-05-07T13:24:58;100861.34;;;20.76
24586;BMP280;12743;52.262;6.172;2023-05-07T13:27:25;100881.34;;;21.05
24586;BMP280;12743;52.262;6.172;2023-05-07T13:29:52;100768.19;;;19.83
24586;BMP280;12743;52.262;6.172;2023-05-07T13:32:19;100777.56;;;20.12
24586;BMP280;12743;52.262;6.172;2023-05-07T13:34:45;100773.84;;;20.50
24586;BMP280;12743;52.262;6.172;2023-05-07T13:37:12;100856.31;;;20.85
24586;BMP280;12743;52.262;6.172;2023-05-07T13:39:39;100775.31;;;20.07
24586;BMP280;12743;52.262;6.172;2023-05-07T13:42:06;100800.41;;;20.64
24586;BMP280;12743;52.262;6.172;2023-05-07T13:44:32;100840.19;;;20.48
24586;BMP280;12743;52.262;6.172;2023-05-07T13:46:59;100786.53;;;20.42
24586;BMP280;12743;52.262;6.172;2023-05-07T13:49:27;100916.09;;;21.42
24586;BMP280;12743;52.262;6.172;2023-05-07T13:51:53;100903.78;;;20.60
24586;BMP280;12743;52.262;6.172;2023-05-07T13:54:20;100857.50;;;20.80
24586;BMP280;12743;52.262;6.172;2023-05-07T13:56:47;100719.59;;;20.19
24586;BMP280;12743;52.262;6.172;2023-05-07T13:59:13;100867.06;;;20.78
24586;BMP280;12743;52.262;6.172;2023-05-07T14:01:40;100762.88;;;20.41
24586;BMP280;12743;52.262;6.172;2023-05-07T14:04:07;100822.09;;;20.73
24586;BMP280;12743;52.262;6.172;2023-05-07T14:06:34;100740.91;;;20.23
24586;BMP280;12743;52.262;6.172;2023-05-07T14:09:01;100731.88;;;20.06
24586;BMP280;12743;52.262;6.172;2023-05-07T14:11:28;100671.28;;;19.45
24586;BMP280;12743;52.262;6.172;2023-05-07T14:13:55;100849.16;;;20.75
24586;BMP280;12743;52.262;6.172;2023-05-07T14:16:23;100849.94;;;20.72
24586;BMP280;12743;52.262;6.172;2023-05-07T14:18:50;100835.53;;;20.59
24586;BMP280;12743;52.262;6.172;2023-05-07T14:21:16;100857.13;;;20.82